M04 weather

Covington Municipal Airport
Covington, Tennessee, United States

Public forecast

Using degrees Fahrenheit for public forecast. Weather courtesy of forecast.io.

Closest aviation weather report (METAR) to Covington Municipal Airport

Closest report is Millington-Memphis Airport, 19.4 nm (36.0 km) SW. Retrieved 2020/06/01 20:50 UTC (26 minutes ago):

KNQA 012050Z 10004KT 10SM CLR 29/06 A3014

Closest aviation forecast (TAF) to Covington Municipal Airport

Closest forecast is McKellar-Sipes Regional Airport, 32.8 nm (60.8 km) E. Retrieved 2020/06/01 18:33 UTC (3 hours ago):

TAF KMKL 011730Z 0118/0218 10007KT P6SM SKC FM020000 00000KT P6SM SKC FM021500 19005KT P6SM SKC